Time;durP1;ratioP1;P1;durP2;ratioP2;P2;SDS_P1;SDS_P2;PMS_P1;PMS_P2;Temp;Humidity;BMP_temperature;BMP_pressure;BME280_temperature;BME280_humidity;BME280_pressure;Samples;Min_cycle;Max_cycle;Signal;HPM_P1;HPM_P2
2021/09/18 00:00:18;;;;;;;8.05;7.25;;;512.00;1920.00;;;;;;5094757;28;20032;-61
2021/09/18 00:02:44;;;;;;;13.07;6.88;;;512.00;1920.00;;;;;;5095162;28;20046;-61
2021/09/18 00:05:10;;;;;;;7.80;6.65;;;512.00;1920.00;;;;;;5096149;28;20024;-62
2021/09/18 00:07:36;;;;;;;8.48;7.20;;;512.00;1920.00;;;;;;5096192;28;20416;-61
2021/09/18 00:10:03;;;;;;;13.13;7.50;;;512.00;1920.00;;;;;;5095800;28;20031;-62
2021/09/18 00:12:28;;;;;;;8.32;7.47;;;512.00;1920.00;;;;;;5096380;28;20039;-61
2021/09/18 00:14:54;;;;;;;9.27;7.95;;;487.30;1920.00;;;;;;5095981;28;20366;-61
2021/09/18 00:17:20;;;;;;;12.05;6.95;;;487.30;1920.00;;;;;;5096210;28;20032;-61
2021/09/18 00:19:45;;;;;;;10.23;7.70;;;487.20;1920.00;;;;;;5096250;28;20403;-62
2021/09/18 00:22:11;;;;;;;10.00;7.05;;;487.20;1920.00;;;;;;5095952;28;20038;-61
2021/09/18 00:24:37;;;;;;;9.27;7.03;;;487.20;1920.00;;;;;;5093386;28;20032;-62
2021/09/18 00:27:04;;;;;;;7.97;7.18;;;487.20;1920.00;;;;;;5094237;28;20032;-61
2021/09/18 00:29:30;;;;;;;8.95;8.05;;;487.20;1920.00;;;;;;5095903;28;20025;-61
2021/09/18 00:31:56;;;;;;;8.60;7.63;;;487.20;1920.00;;;;;;5095826;28;20028;-61
2021/09/18 00:34:22;;;;;;;8.98;7.13;;;487.20;1920.00;;;;;;5096000;28;20030;-61
2021/09/18 00:36:48;;;;;;;8.75;7.95;;;487.20;1920.00;;;;;;5095430;28;20381;-62
2021/09/18 00:39:13;;;;;;;11.57;7.80;;;487.20;1920.00;;;;;;5094531;28;20050;-62
2021/09/18 00:41:40;;;;;;;21.27;7.55;;;487.10;1920.00;;;;;;5095597;28;20103;-62
2021/09/18 00:44:05;;;;;;;8.40;6.93;;;487.10;1920.00;;;;;;5095391;28;20478;-62
2021/09/18 00:46:31;;;;;;;7.82;7.10;;;487.10;1920.00;;;;;;5095667;28;20024;-62
2021/09/18 00:48:57;;;;;;;10.40;6.97;;;487.10;1920.00;;;;;;5095636;28;20398;-61
2021/09/18 00:51:23;;;;;;;9.88;7.18;;;487.10;1920.00;;;;;;5095601;28;20461;-62
2021/09/18 00:53:49;;;;;;;7.95;6.90;;;487.10;1920.00;;;;;;5095315;28;20022;-64
2021/09/18 00:56:17;;;;;;;10.00;6.80;;;487.10;1894.40;;;;;;5095478;28;20039;-62
2021/09/18 00:58:43;;;;;;;8.13;7.30;;;487.10;1894.40;;;;;;5095077;28;20490;-61
2021/09/18 01:01:09;;;;;;;8.93;7.25;;;487.10;1894.40;;;;;;5095351;28;20040;-61
2021/09/18 01:03:34;;;;;;;8.65;7.28;;;487.00;1894.40;;;;;;5095220;28;20071;-62
2021/09/18 01:06:00;;;;;;;7.63;6.90;;;487.00;1894.40;;;;;;5095223;28;20032;-62
2021/09/18 01:08:27;;;;;;;8.10;6.70;;;487.00;1894.40;;;;;;5095269;28;20351;-61
2021/09/18 01:10:54;;;;;;;9.43;6.97;;;487.00;1894.40;;;;;;5094634;28;20048;-62
2021/09/18 01:13:20;;;;;;;7.57;6.07;;;486.90;1894.40;;;;;;5095268;28;20046;-61
2021/09/18 01:15:48;;;;;;;8.55;7.03;;;486.90;1894.40;;;;;;5094991;28;20020;-62
2021/09/18 01:18:14;;;;;;;8.00;6.68;;;486.90;1894.40;;;;;;5095066;28;20032;-62
2021/09/18 01:20:42;;;;;;;7.43;6.70;;;486.90;1894.40;;;;;;5093486;28;20051;-62
2021/09/18 01:23:09;;;;;;;13.25;7.05;;;486.90;1894.40;;;;;;5094834;28;20539;-61
2021/09/18 01:25:37;;;;;;;8.52;7.45;;;486.90;1894.40;;;;;;5094613;28;20024;-61
2021/09/18 01:28:05;;;;;;;11.52;6.82;;;486.90;1894.40;;;;;;5095287;28;20020;-61
2021/09/18 01:30:32;;;;;;;6.45;5.85;;;486.80;1894.40;;;;;;5094851;28;20027;-61
2021/09/18 01:32:59;;;;;;;9.38;7.25;;;486.80;1894.40;;;;;;5093308;28;20373;-61
2021/09/18 01:35:26;;;;;;;9.85;7.47;;;486.80;1894.40;;;;;;5094693;28;20424;-61
2021/09/18 01:37:52;;;;;;;9.40;7.88;;;486.80;1894.40;;;;;;5094596;28;20042;-61
2021/09/18 01:40:33;;;;;;;8.30;7.40;;;486.80;1894.40;;;;;;5094847;28;20048;-61
2021/09/18 01:42:59;;;;;;;8.73;7.10;;;486.80;1894.40;;;;;;5094610;28;20031;-62
2021/09/18 01:45:25;;;;;;;14.82;7.30;;;486.80;1894.40;;;;;;5094545;28;20039;-61
2021/09/18 01:47:56;;;;;;;9.30;7.35;;;486.70;1894.40;;;;;;5094684;28;20024;-62
2021/09/18 01:50:44;;;;;;;12.77;7.65;;;486.70;1894.40;;;;;;5094527;28;20046;-61
2021/09/18 01:53:11;;;;;;;11.75;7.38;;;486.70;1894.40;;;;;;5092999;28;20456;-61
2021/09/18 01:55:37;;;;;;;9.48;6.60;;;486.70;1894.40;;;;;;5093126;28;20663;-61
2021/09/18 01:58:04;;;;;;;14.05;7.47;;;486.70;1894.40;;;;;;5094278;28;20040;-61
2021/09/18 02:00:32;;;;;;;10.55;7.97;;;486.70;1894.40;;;;;;5094451;28;20016;-61
2021/09/18 02:02:57;;;;;;;10.25;7.65;;;486.70;1894.40;;;;;;5094460;28;20028;-61
2021/09/18 02:05:26;;;;;;;8.63;7.32;;;486.60;1894.40;;;;;;5094052;28;20576;-61
2021/09/18 02:07:53;;;;;;;11.38;8.32;;;486.60;1894.40;;;;;;5093816;28;20065;-61
2021/09/18 02:10:22;;;;;;;8.57;7.18;;;486.60;1894.40;;;;;;5094051;28;20051;-61
2021/09/18 02:12:48;;;;;;;10.10;7.75;;;486.60;1894.40;;;;;;5093968;28;20024;-61
2021/09/18 02:15:15;;;;;;;11.55;7.32;;;486.50;1894.40;;;;;;5092652;28;20124;-61
2021/09/18 02:17:42;;;;;;;10.10;7.45;;;486.50;1894.40;;;;;;5093863;28;20485;-61
2021/09/18 02:20:11;;;;;;;9.82;7.95;;;486.50;1894.40;;;;;;5093791;28;20020;-61
2021/09/18 02:22:37;;;;;;;9.82;8.75;;;486.50;1894.40;;;;;;5093806;28;20032;-61
2021/09/18 02:25:04;;;;;;;11.75;7.78;;;486.50;1920.00;;;;;;5093712;28;20028;-61
2021/09/18 02:27:30;;;;;;;11.25;8.45;;;486.50;1894.40;;;;;;5093683;28;20081;-61
2021/09/18 02:29:56;;;;;;;10.50;9.40;;;486.50;1894.40;;;;;;5092469;28;20020;-61
2021/09/18 02:32:21;;;;;;;9.98;8.98;;;486.50;1920.00;;;;;;5093245;28;20119;-61
2021/09/18 02:34:47;;;;;;;12.63;9.40;;;486.40;1920.00;;;;;;5093890;28;20032;-61
2021/09/18 02:37:13;;;;;;;15.15;9.75;;;486.40;1920.00;;;;;;5093608;28;20351;-61
2021/09/18 02:39:40;;;;;;;9.48;8.45;;;486.40;1920.00;;;;;;5093778;28;20024;-61
2021/09/18 02:42:06;;;;;;;9.75;8.70;;;486.40;1920.00;;;;;;5093547;28;20371;-61
2021/09/18 02:44:31;;;;;;;11.30;9.23;;;461.70;1920.00;;;;;;5091987;28;20035;-61
2021/09/18 02:46:57;;;;;;;9.68;8.68;;;461.70;1920.00;;;;;;5093698;28;20423;-61
2021/09/18 02:49:23;;;;;;;14.05;8.70;;;461.60;1920.00;;;;;;5097903;28;20024;-62
2021/09/18 02:51:49;;;;;;;11.65;8.75;;;461.60;1945.60;;;;;;5096325;28;20164;-62
2021/09/18 02:54:14;;;;;;;10.82;9.43;;;461.60;1945.60;;;;;;5097528;28;20032;-61
2021/09/18 02:56:42;;;;;;;12.07;9.20;;;461.60;1945.60;;;;;;5097618;28;20025;-63
2021/09/18 02:59:08;;;;;;;14.38;9.00;;;461.60;1945.60;;;;;;5097507;28;20039;-62
2021/09/18 03:01:34;;;;;;;11.90;9.00;;;461.60;1945.60;;;;;;5097614;28;20465;-61
2021/09/18 03:04:00;;;;;;;9.32;7.97;;;461.50;1945.60;;;;;;5097226;28;20031;-61
2021/09/18 03:06:25;;;;;;;9.40;8.40;;;461.50;1945.60;;;;;;5097420;28;20027;-61
2021/09/18 03:08:51;;;;;;;11.70;7.90;;;461.50;1945.60;;;;;;5097450;28;20028;-62
2021/09/18 03:11:17;;;;;;;10.40;8.60;;;461.50;1945.60;;;;;;5096809;28;20048;-61
2021/09/18 03:13:43;;;;;;;12.80;9.00;;;461.40;1945.60;;;;;;5095985;28;20054;-61
2021/09/18 03:16:08;;;;;;;12.48;8.02;;;461.40;1971.20;;;;;;5097437;28;20025;-62
2021/09/18 03:18:35;;;;;;;10.27;7.95;;;461.40;1945.60;;;;;;5097830;28;20114;-61
2021/09/18 03:21:00;;;;;;;11.57;8.38;;;461.40;1945.60;;;;;;5097787;28;20152;-61
2021/09/18 03:23:26;;;;;;;9.20;8.30;;;461.30;1971.20;;;;;;5095406;28;20493;-62
2021/09/18 03:25:52;;;;;;;13.23;8.30;;;461.30;1945.60;;;;;;5097405;28;20351;-61
2021/09/18 03:28:18;;;;;;;9.65;8.00;;;461.30;1945.60;;;;;;5097192;28;20024;-61
2021/09/18 03:30:43;;;;;;;10.35;8.00;;;461.30;1945.60;;;;;;5097204;28;20474;-61
2021/09/18 03:33:09;;;;;;;13.07;9.07;;;461.30;1945.60;;;;;;5097133;28;20027;-61
2021/09/18 03:35:35;;;;;;;16.25;9.77;;;461.20;1945.60;;;;;;5097043;28;20382;-61
2021/09/18 03:38:01;;;;;;;12.32;8.23;;;461.20;1945.60;;;;;;5096768;28;20125;-60
2021/09/18 03:40:27;;;;;;;9.75;7.82;;;461.20;1945.60;;;;;;5096667;28;20457;-61
2021/09/18 03:42:52;;;;;;;23.27;9.80;;;461.20;1945.60;;;;;;5097021;28;20107;-61
2021/09/18 03:45:18;;;;;;;10.90;8.05;;;461.20;1945.60;;;;;;5095041;28;20024;-61
2021/09/18 03:47:44;;;;;;;10.68;7.30;;;461.20;1945.60;;;;;;5096111;28;20081;-60
2021/09/18 03:50:10;;;;;;;10.80;7.68;;;461.20;1920.00;;;;;;5096482;28;20020;-61
2021/09/18 03:52:37;;;;;;;11.50;7.80;;;461.10;1945.60;;;;;;5096624;28;20024;-61
2021/09/18 03:55:04;;;;;;;12.15;7.88;;;461.10;1945.60;;;;;;5096458;28;20110;-61
2021/09/18 03:57:29;;;;;;;14.40;8.45;;;461.10;1945.60;;;;;;5096578;28;20054;-61
2021/09/18 03:59:55;;;;;;;8.82;7.93;;;461.10;1945.60;;;;;;5095166;28;20024;-61
2021/09/18 04:02:21;;;;;;;11.02;7.43;;;461.10;1920.00;;;;;;5096659;28;20028;-61
2021/09/18 04:04:46;;;;;;;12.02;8.13;;;461.00;1920.00;;;;;;5096572;28;20438;-61
2021/09/18 04:07:13;;;;;;;8.88;7.45;;;461.00;1945.60;;;;;;5094595;28;20028;-61
2021/09/18 04:09:39;;;;;;;10.07;8.30;;;461.00;1920.00;;;;;;5096586;28;20032;-60
2021/09/18 04:12:05;;;;;;;9.23;7.72;;;461.00;1920.00;;;;;;5096116;28;20112;-61
2021/09/18 04:14:31;;;;;;;9.43;7.63;;;461.00;1920.00;;;;;;5094919;28;20021;-61
2021/09/18 04:16:56;;;;;;;11.40;8.03;;;460.90;1920.00;;;;;;5096785;28;20020;-61
2021/09/18 04:19:22;;;;;;;12.95;8.30;;;460.90;1920.00;;;;;;5096449;28;20034;-61
2021/09/18 04:21:48;;;;;;;12.80;8.52;;;460.90;1920.00;;;;;;5095979;28;20116;-61
2021/09/18 04:24:14;;;;;;;9.90;8.80;;;460.90;1920.00;;;;;;5096123;28;20024;-62
2021/09/18 04:26:39;;;;;;;12.15;10.30;;;460.90;1945.60;;;;;;5096003;28;20378;-61
2021/09/18 04:29:06;;;;;;;17.42;12.85;;;460.90;1945.60;;;;;;5095874;28;20026;-61
2021/09/18 04:31:32;;;;;;;18.58;15.35;;;460.80;1945.60;;;;;;5095912;28;20028;-61
2021/09/18 04:33:57;;;;;;;16.15;13.68;;;460.80;1945.60;;;;;;5094645;28;20043;-61
2021/09/18 04:36:23;;;;;;;12.63;10.55;;;460.80;1945.60;;;;;;5095921;28;20099;-61
2021/09/18 04:38:49;;;;;;;10.40;8.80;;;460.80;1945.60;;;;;;5095782;28;20028;-61
2021/09/18 04:41:15;;;;;;;11.35;8.32;;;460.80;1945.60;;;;;;5096073;28;20027;-61
2021/09/18 04:43:41;;;;;;;14.55;7.57;;;460.80;1945.60;;;;;;5095395;28;20537;-61
2021/09/18 04:46:07;;;;;;;11.73;7.63;;;460.80;1920.00;;;;;;5096120;28;20193;-61
2021/09/18 04:48:32;;;;;;;10.32;7.85;;;460.80;1945.60;;;;;;5095748;28;20059;-61
2021/09/18 04:50:58;;;;;;;11.60;7.55;;;436.10;1920.00;;;;;;5095802;28;20481;-60
2021/09/18 04:53:26;;;;;;;10.43;8.05;;;436.10;1920.00;;;;;;5095667;28;20032;-60
2021/09/18 04:55:53;;;;;;;10.27;7.78;;;436.00;1920.00;;;;;;5095641;28;20055;-61
2021/09/18 04:58:18;;;;;;;8.38;7.45;;;436.00;1920.00;;;;;;5095447;28;20028;-60
2021/09/18 05:00:44;;;;;;;16.70;7.90;;;436.00;1920.00;;;;;;5095349;28;20532;-61
2021/09/18 05:03:10;;;;;;;9.27;7.57;;;436.00;1920.00;;;;;;5095475;28;20028;-61
2021/09/18 05:05:36;;;;;;;8.50;7.38;;;436.00;1920.00;;;;;;5095168;28;20051;-61
2021/09/18 05:08:02;;;;;;;10.27;7.53;;;436.00;1920.00;;;;;;5095175;28;20039;-61
2021/09/18 05:10:28;;;;;;;11.93;8.20;;;436.00;1920.00;;;;;;5094649;28;20082;-61
2021/09/18 05:12:54;;;;;;;10.00;7.63;;;436.00;1945.60;;;;;;5094639;28;20055;-62
2021/09/18 05:15:19;;;;;;;11.15;6.95;;;436.00;1920.00;;;;;;5095116;28;20026;-60
2021/09/18 05:17:45;;;;;;;14.60;7.63;;;436.00;1945.60;;;;;;5095064;28;20035;-61
2021/09/18 05:20:11;;;;;;;10.85;7.45;;;436.00;1945.60;;;;;;5093843;28;20088;-61
2021/09/18 05:22:37;;;;;;;10.82;7.63;;;436.10;1920.00;;;;;;5095188;28;20110;-61
2021/09/18 05:25:05;;;;;;;9.43;8.35;;;436.00;1920.00;;;;;;5094866;28;20020;-61
2021/09/18 05:27:30;;;;;;;8.07;7.10;;;436.00;1920.00;;;;;;5094999;28;20026;-61
2021/09/18 05:29:56;;;;;;;9.82;6.85;;;436.10;1920.00;;;;;;5094872;28;20028;-60
2021/09/18 05:32:22;;;;;;;8.63;7.57;;;436.10;1945.60;;;;;;5094267;28;20043;-61
2021/09/18 05:34:47;;;;;;;9.98;7.88;;;436.10;1920.00;;;;;;5094835;28;20032;-61
2021/09/18 05:37:18;;;;;;;9.60;7.70;;;436.10;1920.00;;;;;;5094665;28;20035;-61
2021/09/18 05:39:44;;;;;;;11.40;8.32;;;436.10;1920.00;;;;;;5094507;28;20381;-61
2021/09/18 05:42:10;;;;;;;12.02;8.07;;;460.80;1945.60;;;;;;5094391;28;20027;-61
2021/09/18 05:44:36;;;;;;;10.27;7.53;;;460.80;1971.20;;;;;;5094593;28;20025;-61
2021/09/18 05:47:02;;;;;;;9.63;7.15;;;460.80;1945.60;;;;;;5094687;28;20020;-61
2021/09/18 05:49:27;;;;;;;8.00;6.55;;;460.80;1945.60;;;;;;5094475;28;20473;-61
2021/09/18 05:51:53;;;;;;;12.18;6.75;;;460.80;1945.60;;;;;;5094529;28;20016;-61
2021/09/18 05:54:19;;;;;;;10.63;6.35;;;460.90;1945.60;;;;;;5094942;28;20081;-61
2021/09/18 05:56:44;;;;;;;8.35;6.57;;;460.90;1920.00;;;;;;5093069;28;20485;-61
2021/09/18 05:59:10;;;;;;;8.00;6.25;;;460.90;1920.00;;;;;;5093690;28;20032;-61
2021/09/18 06:01:36;;;;;;;9.07;6.00;;;460.90;1920.00;;;;;;5094239;28;20031;-61
2021/09/18 06:04:02;;;;;;;7.85;6.53;;;460.90;1920.00;;;;;;5094271;28;20016;-61
2021/09/18 06:06:27;;;;;;;13.40;5.70;;;461.00;1920.00;;;;;;5093856;28;20028;-61
2021/09/18 06:08:53;;;;;;;7.28;5.70;;;461.00;1920.00;;;;;;5092998;28;20058;-61
2021/09/18 06:11:19;;;;;;;8.25;5.60;;;461.00;1920.00;;;;;;5093915;28;20052;-61
2021/09/18 06:13:44;;;;;;;7.35;5.95;;;461.10;1920.00;;;;;;5094389;28;20017;-60
2021/09/18 06:16:10;;;;;;;8.13;5.63;;;461.10;1894.40;;;;;;5093752;28;20024;-61
2021/09/18 06:18:36;;;;;;;6.32;5.50;;;461.10;1894.40;;;;;;5092222;28;20040;-61
2021/09/18 06:21:03;;;;;;;8.40;5.97;;;461.20;1894.40;;;;;;5094272;28;20511;-61
2021/09/18 06:23:30;;;;;;;7.40;5.45;;;461.20;1894.40;;;;;;5093089;28;20027;-61
2021/09/18 06:25:56;;;;;;;7.88;5.20;;;461.20;1894.40;;;;;;5093983;28;20107;-61
2021/09/18 06:28:21;;;;;;;12.35;5.65;;;461.30;1894.40;;;;;;5093166;28;20058;-61
2021/09/18 06:30:47;;;;;;;9.00;6.15;;;461.30;1868.80;;;;;;5093126;28;20039;-61
2021/09/18 06:33:13;;;;;;;9.38;5.30;;;461.30;1894.40;;;;;;5092076;28;20039;-61
2021/09/18 06:35:38;;;;;;;11.95;5.63;;;461.30;1894.40;;;;;;5093891;28;20335;-61
2021/09/18 06:38:04;;;;;;;5.93;4.88;;;461.40;1868.80;;;;;;5093876;28;20032;-60
2021/09/18 06:40:30;;;;;;;5.75;4.80;;;461.40;1868.80;;;;;;5093736;28;20028;-62
2021/09/18 06:42:56;;;;;;;6.45;5.40;;;461.40;1868.80;;;;;;5093447;28;20546;-61
2021/09/18 06:45:21;;;;;;;6.57;5.18;;;461.50;1868.80;;;;;;5093502;28;20031;-61
2021/09/18 06:47:47;;;;;;;8.25;4.88;;;461.50;1843.20;;;;;;5093820;28;20031;-61
2021/09/18 06:50:13;;;;;;;5.60;5.07;;;461.60;1868.80;;;;;;5093647;28;20032;-60
2021/09/18 06:52:39;;;;;;;5.53;5.03;;;461.60;1843.20;;;;;;5093746;28;20069;-61
2021/09/18 06:55:06;;;;;;;6.50;5.30;;;461.60;1843.20;;;;;;5093653;28;20059;-61
2021/09/18 06:57:38;;;;;;;5.90;4.63;;;461.70;1843.20;;;;;;5093582;28;20040;-61
2021/09/18 07:00:05;;;;;;;5.35;4.80;;;486.40;1843.20;;;;;;5093487;28;20093;-64
2021/09/18 07:02:31;;;;;;;5.97;5.38;;;486.40;1817.60;;;;;;5093677;28;20111;-63
2021/09/18 07:04:57;;;;;;;7.80;5.07;;;486.50;1817.60;;;;;;5093466;28;20489;-63
2021/09/18 07:07:28;;;;;;;10.80;4.95;;;486.60;1792.00;;;;;;5093256;28;20056;-63
2021/09/18 07:09:54;;;;;;;5.93;5.00;;;486.60;1792.00;;;;;;5093243;28;20466;-64
2021/09/18 07:12:20;;;;;;;6.82;4.80;;;486.70;1792.00;;;;;;5092914;28;20048;-64
2021/09/18 07:14:45;;;;;;;6.95;5.00;;;486.80;1766.40;;;;;;5093371;28;20382;-63
2021/09/18 07:17:11;;;;;;;5.53;4.97;;;486.80;1766.40;;;;;;5092534;28;20466;-64
2021/09/18 07:19:37;;;;;;;7.82;4.63;;;486.90;1740.80;;;;;;5093353;28;20044;-64
2021/09/18 07:22:03;;;;;;;5.30;4.80;;;487.00;1740.80;;;;;;5092492;28;20024;-63
2021/09/18 07:24:32;;;;;;;8.80;4.82;;;487.10;1740.80;;;;;;5092732;28;20028;-63
2021/09/18 07:26:58;;;;;;;6.30;5.07;;;487.10;1715.20;;;;;;5092575;28;20024;-63
2021/09/18 07:29:24;;;;;;;5.80;4.63;;;487.20;1740.80;;;;;;5092469;28;20020;-62
2021/09/18 07:31:50;;;;;;;5.05;4.55;;;512.00;1740.80;;;;;;5092523;28;20028;-62
2021/09/18 07:34:16;;;;;;;7.15;4.53;;;512.10;1740.80;;;;;;5094697;28;20020;-62
2021/09/18 07:36:43;;;;;;;5.43;4.60;;;512.20;1689.60;;;;;;5096070;28;20103;-63
2021/09/18 07:39:08;;;;;;;5.05;3.92;;;512.30;1689.60;;;;;;5096045;28;20389;-63
2021/09/18 07:41:34;;;;;;;4.82;4.43;;;512.50;1664.00;;;;;;5093728;28;20024;-64
2021/09/18 07:44:01;;;;;;;7.32;4.90;;;512.50;1664.00;;;;;;5096289;28;20032;-64
2021/09/18 07:46:30;;;;;;;12.10;4.85;;;512.80;1664.00;;;;;;5096773;28;20107;-64
2021/09/18 07:48:57;;;;;;;5.07;3.40;;;512.80;1612.80;;;;;;5096367;28;20046;-64
2021/09/18 07:51:23;;;;;;;5.20;4.47;;;512.90;1587.20;;;;;;5096789;28;20020;-64
2021/09/18 07:53:49;;;;;;;4.32;3.72;;;537.60;1587.20;;;;;;5112123;28;20055;-64
2021/09/18 07:56:15;;;;;;;4.53;4.10;;;537.60;1587.20;;;;;;5095874;28;20026;-64
2021/09/18 07:58:40;;;;;;;6.72;4.35;;;537.70;1587.20;;;;;;5096050;28;20032;-64
2021/09/18 08:01:06;;;;;;;5.47;4.30;;;537.90;1561.60;;;;;;5096275;28;20056;-64
2021/09/18 08:03:32;;;;;;;13.32;4.68;;;538.00;1561.60;;;;;;5096097;28;20087;-64
2021/09/18 08:05:57;;;;;;;10.57;4.40;;;538.10;1561.60;;;;;;5096267;28;20081;-62
2021/09/18 08:08:23;;;;;;;8.27;4.15;;;538.10;1536.00;;;;;;5095693;28;20028;-62
2021/09/18 08:10:49;;;;;;;6.20;4.20;;;538.10;1510.40;;;;;;5095042;28;20039;-61
2021/09/18 08:13:15;;;;;;;5.82;3.47;;;538.30;1510.40;;;;;;5094372;28;20028;-61
2021/09/18 08:15:41;;;;;;;3.75;3.35;;;538.40;1510.40;;;;;;5094367;28;20482;-61
2021/09/18 08:18:06;;;;;;;5.28;4.40;;;538.50;1484.80;;;;;;5095247;28;20035;-61
2021/09/18 08:20:32;;;;;;;8.65;4.20;;;538.50;1484.80;;;;;;5095512;28;20153;-61
2021/09/18 08:22:58;;;;;;;4.85;3.47;;;563.20;1536.00;;;;;;5095524;28;20032;-61
2021/09/18 08:25:24;;;;;;;5.03;3.42;;;563.30;1510.40;;;;;;5095798;28;20024;-61
2021/09/18 08:27:50;;;;;;;11.38;3.42;;;563.40;1510.40;;;;;;5095996;28;20020;-61
2021/09/18 08:30:16;;;;;;;8.85;3.95;;;563.40;1484.80;;;;;;5095330;28;20053;-62
2021/09/18 08:32:43;;;;;;;5.43;3.42;;;563.50;1459.20;;;;;;5095622;28;20020;-61
2021/09/18 08:35:10;;;;;;;4.38;3.28;;;563.60;1459.20;;;;;;5095361;28;20493;-62
2021/09/18 08:37:36;;;;;;;6.35;3.13;;;563.70;1459.20;;;;;;5095755;28;20032;-62
2021/09/18 08:40:02;;;;;;;5.72;3.00;;;563.70;1433.60;;;;;;5095912;28;20503;-61
2021/09/18 08:42:28;;;;;;;5.35;2.95;;;563.80;1433.60;;;;;;5095425;28;20055;-61
2021/09/18 08:44:55;;;;;;;5.00;2.75;;;563.90;1433.60;;;;;;5094735;28;20027;-61
2021/09/18 08:47:23;;;;;;;3.88;2.47;;;564.00;1408.00;;;;;;5095756;28;20031;-61
2021/09/18 08:49:49;;;;;;;4.90;2.55;;;564.00;1382.40;;;;;;5095152;28;20032;-61
2021/09/18 08:52:15;;;;;;;3.75;2.78;;;588.80;1382.40;;;;;;5095509;28;20039;-61
2021/09/18 08:54:42;;;;;;;6.43;2.97;;;588.80;1356.80;;;;;;5094752;28;20020;-61
2021/09/18 08:57:10;;;;;;;7.97;3.15;;;588.80;1356.80;;;;;;5095232;28;20020;-61
2021/09/18 08:59:37;;;;;;;5.38;3.20;;;588.90;1356.80;;;;;;5095514;28;20051;-61
2021/09/18 09:02:17;;;;;;;4.07;3.20;;;589.00;1356.80;;;;;;5094915;28;20111;-61
2021/09/18 09:04:43;;;;;;;7.03;3.17;;;589.00;1331.20;;;;;;5095463;28;20027;-63
2021/09/18 09:07:12;;;;;;;5.20;3.00;;;589.00;1331.20;;;;;;5095526;28;20430;-61
2021/09/18 09:09:58;;;;;;;4.63;2.50;;;589.10;1331.20;;;;;;5094963;28;20035;-62
2021/09/18 09:12:32;;;;;;;6.63;3.05;;;589.20;1305.60;;;;;;5093808;28;20129;-61
2021/09/18 09:15:01;;;;;;;5.93;2.90;;;589.30;1331.20;;;;;;5094927;28;20472;-62
2021/09/18 09:17:30;;;;;;;3.22;2.70;;;589.30;1305.60;;;;;;5094705;28;20046;-62
2021/09/18 09:19:57;;;;;;;9.05;2.70;;;589.30;1305.60;;;;;;5093866;28;20090;-62
2021/09/18 09:22:43;;;;;;;2.60;2.40;;;589.40;1280.00;;;;;;5094601;28;20031;-69
2021/09/18 09:25:35;;;;;;;2.60;2.40;;;589.40;1305.60;;;;;;5094552;28;20081;-63
2021/09/18 09:28:25;;;;;;;4.47;2.17;;;589.50;1280.00;;;;;;5094194;28;20020;-62
2021/09/18 09:30:53;;;;;;;2.30;2.03;;;589.60;1254.40;;;;;;5094036;28;20358;-69
2021/09/18 09:33:19;;;;;;;3.80;3.03;;;589.50;1280.00;;;;;;5094344;28;20043;-64
2021/09/18 09:35:46;;;;;;;5.47;2.95;;;589.60;1280.00;;;;;;5094603;28;20462;-63
2021/09/18 09:38:12;;;;;;;8.50;2.78;;;589.70;1254.40;;;;;;5094610;28;20523;-63
2021/09/18 09:40:48;;;;;;;3.20;2.10;;;589.70;1254.40;;;;;;5094140;28;20035;-62
2021/09/18 09:43:15;;;;;;;2.13;1.90;;;589.70;1254.40;;;;;;5093732;28;20035;-66
2021/09/18 09:45:42;;;;;;;3.83;2.03;;;589.70;1254.40;;;;;;5093993;28;20032;-63
2021/09/18 09:48:21;;;;;;;6.35;2.42;;;614.40;1254.40;;;;;;5092479;28;20039;-69
2021/09/18 09:51:02;;;;;;;2.42;2.20;;;614.40;1254.40;;;;;;5100011;28;20539;-63
2021/09/18 09:53:30;;;;;;;2.83;2.03;;;614.40;1254.40;;;;;;5092732;28;20024;-65
2021/09/18 09:55:57;;;;;;;2.53;2.10;;;614.40;1331.20;;;;;;5091585;28;20085;-64
2021/09/18 09:58:24;;;;;;;5.72;2.30;;;614.50;1254.40;;;;;;5093545;28;20059;-63
2021/09/18 10:00:52;;;;;;;2.75;1.85;;;614.60;1228.80;;;;;;5093371;28;20016;-62
2021/09/18 10:03:23;;;;;;;2.40;1.85;;;614.60;1228.80;;;;;;5091358;28;20032;-62
2021/09/18 10:05:50;;;;;;;2.97;2.03;;;614.60;1228.80;;;;;;5093535;28;20020;-62
2021/09/18 10:08:22;;;;;;;2.65;2.03;;;614.60;1228.80;;;;;;5092326;28;20028;-62
2021/09/18 10:10:49;;;;;;;4.10;2.03;;;614.60;1203.20;;;;;;5091366;28;20048;-65
2021/09/18 10:13:17;;;;;;;2.78;1.95;;;614.70;1203.20;;;;;;5093789;28;20027;-63
2021/09/18 10:15:44;;;;;;;4.28;1.98;;;614.70;1203.20;;;;;;5090550;28;20022;-62
2021/09/18 10:18:12;;;;;;;2.28;1.70;;;614.70;1203.20;;;;;;5093269;28;20045;-62
2021/09/18 10:23:24;;;;;;;2.38;1.70;;;614.70;1203.20;;;;;;5093501;28;20034;-63
2021/09/18 10:25:53;;;;;;;3.40;2.03;;;614.80;1203.20;;;;;;5093472;28;20020;-62
2021/09/18 10:28:27;;;;;;;1.92;1.65;;;614.80;1203.20;;;;;;5093644;28;20048;-62
2021/09/18 10:30:54;;;;;;;5.15;2.17;;;614.90;1228.80;;;;;;5092278;28;20035;-67
2021/09/18 10:33:37;;;;;;;9.02;2.25;;;614.80;1177.60;;;;;;5093403;28;20516;-62
2021/09/18 10:36:11;;;;;;;5.13;2.33;;;614.80;1177.60;;;;;;5090060;28;20044;-64
2021/09/18 10:38:38;;;;;;;4.35;2.53;;;614.90;1203.20;;;;;;5091026;28;20430;-70
2021/09/18 10:41:07;;;;;;;3.67;1.55;;;614.90;1203.20;;;;;;5092137;28;20034;-62
2021/09/18 10:43:40;;;;;;;2.35;1.17;;;614.90;1177.60;;;;;;5092720;28;20050;-62
2021/09/18 10:46:08;;;;;;;3.17;1.40;;;614.90;1152.00;;;;;;5091939;28;20044;-67
2021/09/18 10:48:50;;;;;;;2.13;1.40;;;614.90;1177.60;;;;;;5091635;28;20031;-62
2021/09/18 10:51:39;;;;;;;2.92;1.65;;;614.90;1126.40;;;;;;5090182;28;20023;-62
2021/09/18 10:54:09;;;;;;;4.28;1.90;;;614.80;1126.40;;;;;;5086607;28;20069;-66
2021/09/18 10:56:57;;;;;;;4.40;1.73;;;614.80;1126.40;;;;;;5092253;28;20093;-67
2021/09/18 10:59:43;;;;;;;15.60;2.20;;;614.70;1126.40;;;;;;5092359;28;20041;-62
2021/09/18 11:02:30;;;;;;;4.63;2.40;;;614.70;1126.40;;;;;;5092540;28;20093;-63
2021/09/18 11:04:57;;;;;;;2.80;1.60;;;614.70;1126.40;;;;;;5092718;28;20024;-62
2021/09/18 11:07:45;;;;;;;2.28;2.00;;;614.70;1126.40;;;;;;5092181;28;20394;-63
2021/09/18 11:10:31;;;;;;;1.98;1.80;;;614.70;1100.80;;;;;;5094582;28;20039;-64
2021/09/18 11:13:09;;;;;;;2.13;1.73;;;614.70;1126.40;;;;;;5033584;28;20041;-69
2021/09/18 11:15:46;;;;;;;2.03;1.23;;;614.70;1126.40;;;;;;5034152;28;20069;-62
2021/09/18 11:18:29;;;;;;;1.88;1.42;;;614.70;1126.40;;;;;;5034340;28;20041;-63
2021/09/18 11:21:18;;;;;;;2.90;1.77;;;614.80;1075.20;;;;;;5016629;28;20034;-62
2021/09/18 11:23:47;;;;;;;2.15;1.50;;;614.80;1100.80;;;;;;5034361;28;20668;-67
2021/09/18 11:26:35;;;;;;;2.30;1.55;;;614.90;1075.20;;;;;;5034193;28;20021;-67
2021/09/18 11:29:13;;;;;;;3.30;1.35;;;614.90;1075.20;;;;;;5033186;28;20029;-63
2021/09/18 11:32:11;;;;;;;4.03;1.50;;;614.90;1075.20;;;;;;5033065;28;20044;-62
2021/09/18 11:34:48;;;;;;;2.63;1.40;;;614.90;1100.80;;;;;;5030599;28;20049;-62
2021/09/18 11:37:20;;;;;;;1.40;1.20;;;615.00;1075.20;;;;;;5032234;28;20040;-63
2021/09/18 11:39:51;;;;;;;2.55;1.40;;;615.00;1075.20;;;;;;5032238;28;20557;-64
2021/09/18 11:42:38;;;;;;;1.70;1.30;;;615.00;1075.20;;;;;;5032075;28;20026;-66
2021/09/18 11:45:08;;;;;;;2.88;1.35;;;615.00;1075.20;;;;;;5031449;28;20026;-62
2021/09/18 11:47:40;;;;;;;1.27;1.17;;;615.10;1075.20;;;;;;5032146;28;20029;-62
2021/09/18 11:50:25;;;;;;;6.63;1.27;;;615.10;1049.60;;;;;;5052381;28;20028;-70
2021/09/18 11:52:53;;;;;;;1.30;1.20;;;615.10;1024.00;;;;;;5092340;28;20031;-65
2021/09/18 11:55:33;;;;;;;1.58;1.10;;;615.10;1024.00;;;;;;5095020;28;20430;-63
2021/09/18 11:58:08;;;;;;;1.30;1.20;;;615.10;1049.60;;;;;;5095371;28;20115;-71
2021/09/18 12:00:36;;;;;;;1.42;1.25;;;615.20;1049.60;;;;;;5095753;28;20478;-62
2021/09/18 12:03:02;;;;;;;1.38;1.27;;;615.20;1049.60;;;;;;5095803;28;20028;-62
2021/09/18 12:05:28;;;;;;;2.95;1.52;;;615.30;1049.60;;;;;;5096025;28;20420;-62
2021/09/18 12:07:54;;;;;;;1.73;1.40;;;615.30;1024.00;;;;;;5095688;28;20061;-64
2021/09/18 12:10:22;;;;;;;4.85;1.40;;;640.00;1049.60;;;;;;5095923;28;20043;-62
2021/09/18 12:12:54;;;;;;;10.00;1.40;;;640.00;1024.00;;;;;;5093511;28;20024;-63
2021/09/18 12:15:43;;;;;;;3.67;1.42;;;640.00;998.40;;;;;;5098262;28;20085;-66
2021/09/18 12:18:24;;;;;;;1.92;1.58;;;640.00;972.80;;;;;;5095344;28;20365;-61
2021/09/18 12:20:51;;;;;;;1.40;1.27;;;615.30;921.60;;;;;;5093283;28;20024;-61